Terminal Aerodrome Forecast
Issued by NWS Binghamton, NY

Home | Current Version | Previous Version | Text Only | Print | Product List | Glossary On
Versions: 1 2 3 4 5 6 7 8 9 10 11 12 13 14 15 16 17 18 19 20 21 22 23 24 25 26 27
315
FTUS41 KBGM 271732
TAFSYR
TAF
KSYR 271732Z 2718/2818 13004KT P6SM BKN025 OVC060
     FM280500 00000KT P6SM BKN030
     FM280800 00000KT 6SM BR OVC030
     FM281000 00000KT 3SM BR OVC015
     FM281500 00000KT P6SM OVC025=

USA.gov is the U.S. government's official web portal to all federal, state and local government web resources and services.